Flight Track Log - Related Links

Times and Time Zones

All times are in EST time to prevent confusion due to time zone crossing. See the SKW7367 flight status page for this flight to view local times or setup timezone preferences in your user account.

Time Position Orientation Groundspeed Altitude Reporting Facility
EST Latitude Longitude Course Direction KTS MPH feet Rate Location/Type
Thu 04:03:28 PM 42.2106 -83.3650 North 145 167 1,300  Level Cleveland Center
Thu 04:05:07 PM 42.1617 -83.4528 233° Southwest 223 257 5,400 2,981 Climbing Cleveland Center
Thu 04:06:09 PM 42.1878 -83.5361 293° West 252 290 9,300 2,855 Climbing Cleveland Center
Thu 04:07:00 PM 42.5827 -83.3790 North  Level Estimated
Thu 04:07:11 PM 42.2439 -83.5989 320° Northwest 297 342 11,300  Level Cleveland Center
Thu 04:08:00 PM 42.6753 -83.3855 North  Level Estimated
Thu 04:08:13 PM 42.3556 -83.5778 North 340 391 14,600  Level Cleveland Center
Thu 04:09:15 PM 42.4564 -83.5433 14° North 362 417 15,000 194 Climbing Cleveland Center
Thu 04:10:17 PM 42.5567 -83.5039 16° North 373 429 15,000  Level Cleveland Center
Thu 04:11:19 PM 42.6544 -83.4656 16° North 368 423 15,000  Level Cleveland Center
Thu 04:12:21 PM 42.7525 -83.4275 16° North 365 420 15,000  Level Cleveland Center
Thu 04:13:23 PM 42.8508 -83.3892 16° North 366 421 15,000  Level Cleveland Center
Thu 04:14:25 PM 42.9497 -83.3653 10° North 363 418 15,000 -48 Level Cleveland Center
Thu 04:15:27 PM 43.0669 -83.3678 359° North 353 406 14,900 -48 Descending Cleveland Center
Thu 04:16:29 PM 43.1336 -83.4531 317° Northwest 328 377 14,900  Level Cleveland Center
Thu 04:17:32 PM 43.1936 -83.5447 312° West 327 376 14,900  Level Cleveland Center
Thu 04:18:34 PM 43.2533 -83.6369 312° West 325 374 14,900  Level Cleveland Center
Thu 04:19:36 PM 43.3133 -83.7311 311° West 329 379 14,900  Level Cleveland Center
Thu 04:20:38 PM 43.3847 -83.8450 311° West 328 377 14,900  Level Cleveland Center
Thu 04:21:40 PM 43.4453 -83.9394 311° West 330 380 14,900  Level Cleveland Center
Thu 04:22:42 PM 43.5078 -84.0367 312° West 327 376 14,900  Level Cleveland Center
Thu 04:23:44 PM 43.6011 -84.0531 353° North 357 411 14,900 48 Level Cleveland Center
Thu 04:24:46 PM 43.6994 -84.0214 13° North 363 418 15,000 48 Climbing Cleveland Center
Thu 04:25:48 PM 43.7986 -83.9883 14° North 367 422 15,000  Level Cleveland Center
Thu 04:26:50 PM 43.8975 -83.9564 13° North 366 421 15,000  Level Cleveland Center
Thu 04:27:52 PM 44.0183 -83.9175 13° North 371 427 15,000  Level Cleveland Center
Thu 04:28:54 PM 44.1178 -83.8828 14° North 371 427 15,000  Level Cleveland Center
Thu 04:29:57 PM 44.2144 -83.8386 18° North 367 422 15,000  Level Cleveland Center
Thu 04:30:59 PM 44.2994 -83.7933 21° North 338 389 15,000 -532 Level Cleveland Center
Thu 04:32:01 PM 44.3853 -83.7506 20° North 329 379 13,900 -1,258 Descending Cleveland Center
Thu 04:33:03 PM 44.4767 -83.7114 17° North 323 372 12,400 -2,167 Descending Cleveland Center
Thu 04:34:25 PM 44.5889 -83.6611 18° North 302 348 8,700 -2,417 Descending Minneapolis Center
Thu 04:35:27 PM 44.6697 -83.6242 18° North 289 333 6,600 -2,129 Descending Minneapolis Center
Thu 04:36:29 PM 44.7417 -83.5908 18° North 279 321 4,300 -1,597 Descending Minneapolis Center
Thu 04:37:31 PM 44.8181 -83.5667 13° North 262 302 3,300 -726 Descending Minneapolis Center
Thu 04:38:33 PM 44.8756 -83.5619 North 221 254 2,800 -240 Descending Minneapolis Center
Thu 04:39:36 PM 44.9339 -83.5606 North 203 234 2,800 -192 Level Minneapolis Center
Thu 04:40:38 PM 44.9850 -83.5608 360° North 182 209 2,400 -532 Descending Minneapolis Center
Thu 04:41:40 PM 45.0194 -83.5611 360° North 133 153 1,700 -774 Descending Minneapolis Center
Thu 04:42:42 PM 45.0592 -83.5611 360° North 133 153 800 -484 Descending Minneapolis Center
Thu 04:43:44 PM 45.0903 -83.5603 North 133 153 700 -97 Descending Minneapolis Center

Login

Don't have an account? Register now (free) for customized features, flight alerts, and more!